Time;durP1;ratioP1;P1;durP2;ratioP2;P2;SDS_P1;SDS_P2;PMS_P1;PMS_P2;Temp;Humidity;BMP_temperature;BMP_pressure;BME280_temperature;BME280_humidity;BME280_pressure;Samples;Min_cycle;Max_cycle;Signal;HPM_P1;HPM_P2
2021/08/10 00:00:30;;;;;;;10.38;6.70;;;15.30;99.90;;;;;;5076512;28;20098;-72
2021/08/10 00:02:56;;;;;;;10.30;6.60;;;15.30;99.90;;;;;;5075404;28;20044;-73
2021/08/10 00:05:23;;;;;;;11.68;7.30;;;15.40;99.90;;;;;;5076360;28;20052;-72
2021/08/10 00:07:48;;;;;;;9.85;6.53;;;15.40;99.90;;;;;;5073639;28;20045;-74
2021/08/10 00:10:14;;;;;;;11.77;7.22;;;15.40;99.90;;;;;;5053458;28;20403;-75
2021/08/10 00:12:40;;;;;;;8.75;7.13;;;15.40;99.90;;;;;;5068509;28;20406;-73
2021/08/10 00:15:08;;;;;;;9.38;7.70;;;15.40;99.90;;;;;;5038892;28;20051;-75
2021/08/10 00:17:36;;;;;;;10.68;7.15;;;15.40;99.90;;;;;;5074482;28;20119;-75
2021/08/10 00:20:04;;;;;;;9.35;7.05;;;15.40;99.90;;;;;;5061075;28;20040;-75
2021/08/10 00:22:29;;;;;;;12.77;8.18;;;15.30;99.90;;;;;;5078571;28;20559;-75
2021/08/10 00:24:55;;;;;;;12.52;7.47;;;15.30;99.90;;;;;;5084543;28;20064;-76
2021/08/10 00:27:22;;;;;;;12.18;7.88;;;15.30;99.90;;;;;;5079637;28;20392;-72
2021/08/10 00:29:48;;;;;;;11.23;7.88;;;15.30;99.90;;;;;;5079740;28;20045;-73
2021/08/10 00:32:14;;;;;;;13.63;8.68;;;15.30;99.90;;;;;;5072880;28;20053;-73
2021/08/10 00:34:40;;;;;;;9.30;7.43;;;15.30;99.90;;;;;;5073765;28;20050;-74
2021/08/10 00:37:07;;;;;;;11.60;8.60;;;15.30;99.90;;;;;;5075092;28;20044;-75
2021/08/10 00:39:34;;;;;;;12.65;8.93;;;15.30;99.90;;;;;;5079545;28;20036;-74
2021/08/10 00:42:00;;;;;;;11.65;9.13;;;15.30;99.90;;;;;;5075746;28;20042;-74
2021/08/10 00:44:26;;;;;;;16.23;8.98;;;15.30;99.90;;;;;;5076844;28;20470;-74
2021/08/10 00:46:52;;;;;;;12.88;8.20;;;15.30;99.90;;;;;;5076504;28;20040;-73
2021/08/10 00:49:18;;;;;;;11.05;9.05;;;15.30;99.90;;;;;;5078395;28;20075;-73
2021/08/10 00:51:47;;;;;;;13.75;9.32;;;15.30;99.90;;;;;;5075418;28;20072;-72
2021/08/10 00:54:14;;;;;;;13.23;8.70;;;15.30;99.90;;;;;;5064603;28;20040;-72
2021/08/10 00:56:46;;;;;;;14.00;9.38;;;15.30;99.90;;;;;;5072644;28;20509;-74
2021/08/10 00:59:12;;;;;;;11.73;8.85;;;15.30;99.90;;;;;;5071033;28;20032;-71
2021/08/10 01:01:38;;;;;;;13.88;8.80;;;15.30;99.90;;;;;;5074341;28;20384;-72
2021/08/10 01:04:06;;;;;;;10.88;7.90;;;15.30;99.90;;;;;;5070734;28;20140;-73
2021/08/10 01:07:06;;;;;;;13.18;8.75;;;15.30;99.90;;;;;;5051664;28;20123;-73
2021/08/10 01:09:52;;;;;;;11.52;8.70;;;15.30;99.90;;;;;;5074333;28;20048;-72
2021/08/10 01:12:59;;;;;;;10.45;8.23;;;15.30;99.90;;;;;;5073837;28;20040;-73
2021/08/10 01:15:32;;;;;;;13.73;8.98;;;15.30;99.90;;;;;;5017373;28;20043;-72
2021/08/10 01:18:27;;;;;;;11.80;8.43;;;15.30;99.90;;;;;;5058648;28;20076;-72
2021/08/10 01:21:11;;;;;;;12.70;8.68;;;15.30;99.90;;;;;;5041858;28;20119;-72
2021/08/10 01:23:37;;;;;;;11.35;8.77;;;15.30;99.90;;;;;;5061711;28;20482;-72
2021/08/10 01:26:27;;;;;;;14.02;9.43;;;15.20;99.90;;;;;;5074913;28;20036;-73
2021/08/10 01:29:11;;;;;;;14.30;8.73;;;15.20;99.90;;;;;;5073590;28;20068;-73
2021/08/10 01:31:43;;;;;;;12.85;9.23;;;15.20;99.90;;;;;;5075577;28;20059;-73
2021/08/10 01:34:29;;;;;;;;;;;15.20;99.90;;;;;;5071445;28;20787;-73
2021/08/10 01:37:03;;;;;;;15.27;9.45;;;15.20;99.90;;;;;;5068838;28;19951;-73
2021/08/10 01:39:32;;;;;;;14.68;9.50;;;15.20;99.90;;;;;;5072143;28;20047;-73
2021/08/10 01:41:58;;;;;;;14.57;9.57;;;15.20;99.90;;;;;;5069874;28;20413;-71
2021/08/10 01:44:27;;;;;;;13.32;9.88;;;15.10;99.90;;;;;;5078574;28;20051;-73
2021/08/10 01:46:58;;;;;;;11.07;8.05;;;15.10;99.90;;;;;;5075535;28;20036;-72
2021/08/10 01:49:26;;;;;;;13.77;9.23;;;15.10;99.90;;;;;;5071365;28;20040;-72
2021/08/10 01:51:53;;;;;;;13.25;9.13;;;15.10;99.90;;;;;;5075152;28;20730;-72
2021/08/10 01:54:28;;;;;;;13.98;8.70;;;15.10;99.90;;;;;;5078658;28;20036;-73
2021/08/10 01:56:55;;;;;;;10.98;8.50;;;15.10;99.90;;;;;;5074258;28;20111;-73
2021/08/10 01:59:23;;;;;;;14.00;9.10;;;15.10;99.90;;;;;;5074377;28;20032;-73
2021/08/10 02:01:51;;;;;;;11.38;8.20;;;15.10;99.90;;;;;;5073550;28;20123;-73
2021/08/10 02:04:19;;;;;;;13.88;8.60;;;15.10;99.90;;;;;;5059416;28;20036;-73
2021/08/10 02:06:47;;;;;;;11.63;7.95;;;15.10;99.90;;;;;;5068821;28;20033;-74
2021/08/10 02:09:17;;;;;;;10.60;7.97;;;15.10;99.90;;;;;;5074140;28;20036;-73
2021/08/10 02:11:44;;;;;;;13.23;8.18;;;15.10;99.90;;;;;;5074092;28;20047;-73
2021/08/10 02:14:12;;;;;;;11.82;8.15;;;15.10;99.90;;;;;;5068670;28;20112;-72
2021/08/10 02:16:38;;;;;;;13.32;7.25;;;15.00;99.90;;;;;;5052459;28;20090;-72
2021/08/10 02:19:07;;;;;;;13.80;7.80;;;15.00;99.90;;;;;;5070770;28;20762;-72
2021/08/10 02:21:51;;;;;;;11.95;7.55;;;15.00;99.90;;;;;;5073254;28;20067;-73
2021/08/10 02:24:27;;;;;;;11.68;7.47;;;15.00;99.90;;;;;;5073528;28;20048;-72
2021/08/10 02:27:03;;;;;;;12.30;7.50;;;15.00;99.90;;;;;;5077277;28;20498;-73
2021/08/10 02:29:34;;;;;;;11.60;8.20;;;15.00;99.90;;;;;;5074347;28;20063;-73
2021/08/10 02:32:02;;;;;;;12.70;8.02;;;15.00;99.90;;;;;;5070641;28;20044;-73
2021/08/10 02:34:28;;;;;;;13.77;8.55;;;15.00;99.90;;;;;;5066879;28;20545;-71
2021/08/10 02:36:57;;;;;;;14.65;8.77;;;15.00;99.90;;;;;;5069376;28;20048;-72
2021/08/10 02:39:24;;;;;;;11.95;8.23;;;15.00;99.90;;;;;;5067670;28;20119;-72
2021/08/10 02:41:51;;;;;;;10.20;7.28;;;15.00;99.90;;;;;;5069963;28;20078;-74
2021/08/10 02:44:18;;;;;;;11.25;7.97;;;14.90;99.90;;;;;;5072242;28;20069;-73
2021/08/10 02:46:43;;;;;;;14.05;8.32;;;14.90;99.90;;;;;;5072311;28;20055;-74
2021/08/10 02:49:10;;;;;;;13.27;8.55;;;14.90;99.90;;;;;;5074677;28;20033;-73
2021/08/10 02:51:38;;;;;;;13.40;8.35;;;14.90;99.90;;;;;;5069004;28;20063;-73
2021/08/10 02:54:07;;;;;;;13.68;8.48;;;14.90;99.90;;;;;;5069253;28;20047;-73
2021/08/10 02:56:38;;;;;;;13.60;9.27;;;14.90;99.90;;;;;;5077875;28;20098;-73
2021/08/10 02:59:18;;;;;;;13.45;8.70;;;14.90;99.90;;;;;;5071400;28;20054;-73
2021/08/10 03:02:15;;;;;;;12.10;9.13;;;14.90;99.90;;;;;;5070107;28;20548;-72
2021/08/10 03:04:47;;;;;;;15.38;8.85;;;14.90;99.90;;;;;;5073555;28;20178;-72
2021/08/10 03:07:13;;;;;;;15.63;9.43;;;14.90;99.90;;;;;;5071483;28;20093;-72
2021/08/10 03:09:40;;;;;;;13.23;9.48;;;14.80;99.90;;;;;;5081989;28;20063;-72
2021/08/10 03:12:11;;;;;;;14.57;9.00;;;14.80;99.90;;;;;;5065098;28;20824;-72
2021/08/10 03:14:37;;;;;;;13.68;8.45;;;14.80;99.90;;;;;;5074547;28;20040;-72
2021/08/10 03:17:10;;;;;;;15.10;9.45;;;14.80;99.90;;;;;;5076484;28;20494;-73
2021/08/10 03:19:40;;;;;;;13.68;9.95;;;14.80;99.90;;;;;;5069037;28;20036;-72
2021/08/10 03:22:07;;;;;;;16.52;10.10;;;14.80;99.90;;;;;;5065861;28;20044;-72
2021/08/10 03:24:36;;;;;;;14.57;9.80;;;14.80;99.90;;;;;;5072946;28;20486;-73
2021/08/10 03:27:05;;;;;;;14.80;9.75;;;14.80;99.90;;;;;;5073854;28;20040;-72
2021/08/10 03:29:35;;;;;;;12.80;9.88;;;14.80;99.90;;;;;;5069259;28;20392;-73
2021/08/10 03:32:04;;;;;;;14.45;8.63;;;14.80;99.90;;;;;;5074181;28;20052;-73
2021/08/10 03:34:32;;;;;;;12.27;10.05;;;14.80;99.90;;;;;;5073888;28;20044;-73
2021/08/10 03:37:00;;;;;;;12.98;8.73;;;14.80;99.90;;;;;;5072445;28;20035;-73
2021/08/10 03:39:29;;;;;;;14.13;10.13;;;14.80;99.90;;;;;;5066573;28;20043;-75
2021/08/10 03:41:55;;;;;;;16.20;11.10;;;14.80;99.90;;;;;;5072622;28;20040;-75
2021/08/10 03:44:22;;;;;;;17.52;11.02;;;14.90;99.90;;;;;;5073567;28;20040;-73
2021/08/10 03:46:49;;;;;;;13.23;10.27;;;14.90;99.90;;;;;;5077150;28;20036;-74
2021/08/10 03:49:20;;;;;;;13.82;10.25;;;14.80;99.90;;;;;;5075229;28;20494;-73
2021/08/10 03:51:46;;;;;;;14.68;9.77;;;14.90;99.90;;;;;;5067529;28;20032;-73
2021/08/10 03:54:12;;;;;;;12.48;9.50;;;14.90;99.90;;;;;;5071463;28;20055;-73
2021/08/10 03:56:46;;;;;;;12.85;9.43;;;14.90;99.90;;;;;;5074760;28;20036;-72
2021/08/10 03:59:15;;;;;;;14.85;8.88;;;14.90;99.90;;;;;;5073355;28;20086;-72
2021/08/10 04:01:42;;;;;;;17.40;10.07;;;14.90;99.90;;;;;;5073360;28;20115;-72
2021/08/10 04:04:09;;;;;;;11.55;8.55;;;14.90;99.90;;;;;;5078291;28;20546;-73
2021/08/10 04:06:37;;;;;;;14.35;9.07;;;14.90;99.90;;;;;;5070396;28;20127;-72
2021/08/10 04:09:09;;;;;;;15.18;9.15;;;14.90;99.90;;;;;;5071116;28;20431;-72
2021/08/10 04:11:40;;;;;;;12.02;8.70;;;14.90;99.90;;;;;;5082225;28;20052;-73
2021/08/10 04:14:08;;;;;;;12.43;8.30;;;14.90;99.90;;;;;;5075184;28;20045;-73
2021/08/10 04:16:47;;;;;;;13.25;8.75;;;15.00;99.90;;;;;;5057951;28;20071;-74
2021/08/10 04:19:17;;;;;;;13.10;9.35;;;15.00;99.90;;;;;;5081747;28;20502;-72
2021/08/10 04:21:44;;;;;;;15.70;10.25;;;15.00;99.90;;;;;;5069680;28;20042;-74
2021/08/10 04:24:10;;;;;;;21.73;10.60;;;15.00;99.90;;;;;;5062579;28;20139;-74
2021/08/10 04:26:37;;;;;;;16.25;10.70;;;15.00;99.90;;;;;;5075727;28;20155;-74
2021/08/10 04:29:13;;;;;;;14.90;10.18;;;15.00;99.90;;;;;;5079413;28;20044;-75
2021/08/10 04:31:40;;;;;;;16.27;10.98;;;15.00;99.90;;;;;;5084437;28;20042;-75
2021/08/10 04:34:06;;;;;;;13.45;10.23;;;14.90;99.90;;;;;;5076616;28;20044;-75
2021/08/10 04:36:32;;;;;;;17.13;11.43;;;14.90;99.90;;;;;;5081592;28;20126;-76
2021/08/10 04:38:59;;;;;;;16.45;10.75;;;14.90;99.90;;;;;;5080812;28;20048;-76
2021/08/10 04:41:27;;;;;;;19.17;10.77;;;14.90;99.90;;;;;;5042267;28;20039;-76
2021/08/10 04:43:53;;;;;;;14.02;11.13;;;14.90;99.90;;;;;;5081326;28;20825;-74
2021/08/10 04:46:21;;;;;;;17.75;10.95;;;14.90;99.90;;;;;;5074991;28;20082;-73
2021/08/10 04:48:47;;;;;;;19.60;12.07;;;14.90;99.90;;;;;;5067073;28;20074;-74
2021/08/10 04:51:13;;;;;;;20.92;12.18;;;14.90;99.90;;;;;;5081802;28;20487;-74
2021/08/10 04:53:42;;;;;;;19.70;12.82;;;14.90;99.90;;;;;;5080128;28;20494;-75
2021/08/10 04:56:09;;;;;;;18.70;10.65;;;14.90;99.90;;;;;;5073367;28;20055;-75
2021/08/10 04:58:41;;;;;;;18.60;12.20;;;14.80;99.90;;;;;;5079714;28;20486;-75
2021/08/10 05:01:10;;;;;;;17.65;11.80;;;14.80;99.90;;;;;;5063766;28;20033;-75
2021/08/10 05:03:36;;;;;;;15.88;11.60;;;14.90;99.90;;;;;;5080407;28;20122;-76
2021/08/10 05:06:05;;;;;;;16.02;11.48;;;14.90;99.90;;;;;;5084688;28;20592;-75
2021/08/10 05:08:31;;;;;;;19.77;13.20;;;14.90;99.90;;;;;;5062191;28;20707;-76
2021/08/10 05:10:58;;;;;;;17.00;11.30;;;14.80;99.90;;;;;;5076132;28;20048;-76
2021/08/10 05:13:25;;;;;;;17.60;12.35;;;14.90;99.90;;;;;;5054734;28;20036;-76
2021/08/10 05:15:51;;;;;;;18.90;13.15;;;14.90;99.90;;;;;;5089267;28;20056;-76
2021/08/10 05:18:17;;;;;;;23.05;13.75;;;14.90;99.90;;;;;;5082388;28;20040;-76
2021/08/10 05:20:43;;;;;;;19.33;12.93;;;14.90;99.90;;;;;;5075438;28;20040;-75
2021/08/10 05:23:11;;;;;;;21.52;14.35;;;14.90;99.90;;;;;;5053541;28;20495;-75
2021/08/10 05:25:39;;;;;;;16.45;13.00;;;14.90;99.90;;;;;;5071413;28;20040;-75
2021/08/10 05:28:04;;;;;;;16.38;12.82;;;14.90;99.90;;;;;;5083228;28;20125;-75
2021/08/10 05:30:31;;;;;;;17.60;13.52;;;14.90;99.90;;;;;;5085208;28;20111;-76
2021/08/10 05:32:57;;;;;;;19.45;13.18;;;15.00;99.90;;;;;;5048747;28;20133;-76
2021/08/10 05:35:23;;;;;;;19.58;13.18;;;15.00;99.90;;;;;;5064531;28;20049;-74
2021/08/10 05:37:48;;;;;;;20.55;13.48;;;15.00;99.90;;;;;;5079552;28;20409;-75
2021/08/10 05:40:14;;;;;;;20.13;13.50;;;15.00;99.90;;;;;;5082097;28;20044;-76
2021/08/10 05:42:40;;;;;;;22.65;14.73;;;15.00;99.90;;;;;;5071480;28;20045;-76
2021/08/10 05:45:07;;;;;;;20.08;14.15;;;15.00;99.90;;;;;;5081212;28;20043;-75
2021/08/10 05:47:32;;;;;;;18.63;13.95;;;15.00;99.90;;;;;;5075684;28;20505;-74
2021/08/10 05:49:59;;;;;;;17.77;13.63;;;15.00;99.90;;;;;;5083774;28;20234;-75
2021/08/10 05:52:24;;;;;;;20.17;14.55;;;15.00;99.90;;;;;;5080620;28;20106;-76
2021/08/10 05:54:50;;;;;;;20.90;13.85;;;15.10;99.90;;;;;;5088237;28;20515;-76
2021/08/10 05:57:16;;;;;;;19.88;14.60;;;15.10;99.90;;;;;;5075934;28;20094;-76
2021/08/10 05:59:44;;;;;;;15.50;12.43;;;15.10;99.90;;;;;;5079619;28;20036;-76
2021/08/10 06:02:10;;;;;;;19.23;13.35;;;15.20;99.90;;;;;;5060383;28;20041;-76
2021/08/10 06:04:36;;;;;;;17.17;12.65;;;15.30;99.90;;;;;;5085864;28;20058;-77
2021/08/10 06:07:04;;;;;;;18.30;13.45;;;15.30;99.90;;;;;;5086481;28;20036;-76
2021/08/10 06:09:30;;;;;;;17.35;12.57;;;15.40;99.90;;;;;;5074662;28;20548;-76
2021/08/10 06:11:55;;;;;;;20.02;14.55;;;15.50;99.90;;;;;;5086121;28;20048;-77
2021/08/10 06:14:21;;;;;;;17.17;14.68;;;15.50;99.90;;;;;;5074341;28;20491;-75
2021/08/10 06:16:47;;;;;;;19.52;14.77;;;15.50;99.90;;;;;;5054189;28;20079;-76
2021/08/10 06:19:13;;;;;;;15.23;13.20;;;15.60;99.90;;;;;;5084762;28;20042;-76
2021/08/10 06:21:40;;;;;;;17.95;13.90;;;15.70;99.90;;;;;;5054595;28;20490;-76
2021/08/10 06:24:06;;;;;;;19.48;14.35;;;15.70;99.90;;;;;;5074317;28;20067;-78
2021/08/10 06:26:32;;;;;;;16.02;13.38;;;15.60;99.90;;;;;;5071974;28;20040;-76
2021/08/10 06:29:01;;;;;;;16.48;12.68;;;15.60;99.90;;;;;;5057471;28;20450;-73
2021/08/10 06:31:27;;;;;;;16.90;13.48;;;15.60;99.90;;;;;;5080050;28;20101;-75
2021/08/10 06:33:53;;;;;;;16.08;13.10;;;15.70;99.90;;;;;;5080672;28;20048;-74
2021/08/10 06:36:19;;;;;;;14.05;11.32;;;15.70;99.90;;;;;;5076038;28;20123;-76
2021/08/10 06:38:45;;;;;;;13.77;11.45;;;15.70;99.90;;;;;;5079661;28;20490;-75
2021/08/10 06:41:11;;;;;;;15.10;12.93;;;15.70;99.90;;;;;;5070053;28;20072;-76
2021/08/10 06:43:37;;;;;;;12.82;10.35;;;15.70;99.90;;;;;;5062627;28;20083;-76
2021/08/10 06:46:03;;;;;;;13.30;10.85;;;15.80;99.90;;;;;;5055444;28;20037;-76
2021/08/10 06:48:29;;;;;;;16.13;10.57;;;15.80;99.90;;;;;;5080066;28;20055;-78
2021/08/10 06:50:54;;;;;;;14.43;10.13;;;15.80;99.90;;;;;;5075128;28;20498;-77
2021/08/10 06:53:20;;;;;;;12.00;8.55;;;15.70;99.90;;;;;;5078326;28;20048;-78
2021/08/10 06:55:50;;;;;;;11.40;8.63;;;15.70;99.90;;;;;;5057289;28;20040;-77
2021/08/10 06:58:16;;;;;;;;;;;15.80;99.90;;;;;;5037429;28;20481;-77
2021/08/10 07:00:45;;;;;;;10.57;8.60;;;15.60;99.90;;;;;;5083513;28;19920;-77
2021/08/10 07:03:11;;;;;;;15.55;9.68;;;15.60;99.90;;;;;;5084974;28;20131;-76
2021/08/10 07:05:37;;;;;;;11.27;8.27;;;15.50;99.90;;;;;;5050391;28;20115;-75
2021/08/10 07:08:03;;;;;;;11.23;8.50;;;15.50;99.90;;;;;;5055817;28;20040;-76
2021/08/10 07:10:29;;;;;;;12.35;9.45;;;15.50;99.90;;;;;;5079673;28;20051;-76
2021/08/10 07:12:55;;;;;;;12.48;10.30;;;15.60;99.90;;;;;;5077263;28;20036;-76
2021/08/10 07:15:21;;;;;;;11.32;10.15;;;15.60;99.90;;;;;;5071203;28;20563;-75
2021/08/10 07:17:47;;;;;;;12.35;10.35;;;15.60;99.90;;;;;;5076499;28;20175;-75
2021/08/10 07:20:13;;;;;;;12.95;10.30;;;15.70;99.90;;;;;;5073816;28;20091;-75
2021/08/10 07:22:39;;;;;;;12.45;10.27;;;15.70;99.90;;;;;;5069265;28;20487;-75
2021/08/10 07:25:05;;;;;;;15.18;12.35;;;15.80;99.90;;;;;;5073730;28;20548;-76
2021/08/10 07:27:32;;;;;;;13.57;11.85;;;15.90;99.90;;;;;;5053368;28;20119;-75
2021/08/10 07:29:59;;;;;;;15.88;13.65;;;16.00;99.90;;;;;;5075195;28;20124;-75
2021/08/10 07:32:25;;;;;;;14.70;13.05;;;16.20;99.90;;;;;;5073674;28;20055;-76
2021/08/10 07:34:51;;;;;;;16.13;14.27;;;16.40;99.90;;;;;;5073996;28;20044;-74
2021/08/10 07:37:17;;;;;;;16.52;13.80;;;16.50;99.90;;;;;;5069316;28;21169;-74
2021/08/10 07:39:46;;;;;;;17.00;13.90;;;16.60;99.90;;;;;;5053956;28;20525;-74
2021/08/10 07:42:15;;;;;;;18.30;16.38;;;16.60;99.90;;;;;;5071334;28;20041;-76
2021/08/10 07:44:41;;;;;;;16.95;14.88;;;16.60;99.90;;;;;;5069820;28;20040;-74
2021/08/10 07:47:07;;;;;;;18.38;15.57;;;16.60;99.90;;;;;;5081885;28;20085;-76
2021/08/10 07:49:34;;;;;;;16.13;14.50;;;16.60;99.90;;;;;;5064147;28;20044;-74
2021/08/10 07:52:00;;;;;;;17.95;14.65;;;16.70;99.90;;;;;;5062103;28;20056;-73
2021/08/10 07:54:26;;;;;;;17.75;15.93;;;16.70;99.90;;;;;;5076966;28;20045;-74
2021/08/10 07:56:52;;;;;;;19.65;17.35;;;16.70;99.90;;;;;;5077040;28;20040;-74
2021/08/10 07:59:18;;;;;;;24.00;21.45;;;16.70;99.90;;;;;;5066079;28;20101;-74
2021/08/10 08:01:44;;;;;;;21.63;19.38;;;16.80;99.90;;;;;;5079353;28;20127;-74
2021/08/10 08:04:10;;;;;;;20.92;18.77;;;16.90;99.90;;;;;;5065877;28;20044;-74
2021/08/10 08:06:36;;;;;;;21.45;18.80;;;17.00;99.90;;;;;;5069631;28;20048;-75
2021/08/10 08:09:01;;;;;;;23.45;20.05;;;17.10;99.90;;;;;;5085115;28;20044;-75
2021/08/10 08:11:27;;;;;;;24.88;21.10;;;17.10;99.90;;;;;;5083716;28;20311;-74
2021/08/10 08:13:53;;;;;;;21.58;19.27;;;17.00;99.90;;;;;;5066127;28;20115;-75
2021/08/10 08:16:19;;;;;;;25.02;19.70;;;17.00;99.90;;;;;;5077722;28;20498;-74
2021/08/10 08:18:45;;;;;;;25.05;20.05;;;17.00;99.90;;;;;;5074967;28;20040;-74
2021/08/10 08:21:11;;;;;;;22.25;19.85;;;17.00;99.90;;;;;;5058636;28;20064;-74
2021/08/10 08:23:38;;;;;;;29.17;21.75;;;16.90;99.90;;;;;;5070380;28;20040;-73
2021/08/10 08:26:05;;;;;;;24.83;20.88;;;16.90;99.90;;;;;;5038519;28;20048;-74
2021/08/10 08:28:33;;;;;;;22.75;20.35;;;16.80;99.90;;;;;;5081330;28;20048;-73
2021/08/10 08:31:01;;;;;;;23.52;18.55;;;16.90;99.90;;;;;;5068774;28;20579;-73
2021/08/10 08:33:28;;;;;;;23.65;20.98;;;16.90;99.90;;;;;;5080636;28;20052;-74
2021/08/10 08:35:54;;;;;;;23.10;18.50;;;17.00;99.90;;;;;;5065676;28;20155;-74
2021/08/10 08:38:20;;;;;;;23.10;18.48;;;17.10;99.90;;;;;;5058996;28;20520;-74
2021/08/10 08:40:47;;;;;;;23.10;18.73;;;17.20;99.90;;;;;;5072818;28;20098;-74
2021/08/10 08:43:17;;;;;;;20.70;17.45;;;17.20;99.90;;;;;;5079314;28;20040;-73
2021/08/10 08:45:43;;;;;;;27.23;18.95;;;17.30;99.90;;;;;;5075484;28;20070;-74
2021/08/10 08:48:14;;;;;;;20.30;17.23;;;17.30;99.90;;;;;;5083378;28;20032;-74
2021/08/10 08:50:40;;;;;;;;;;;17.30;99.90;;;;;;5087831;28;20036;-74
2021/08/10 08:53:07;;;;;;;22.17;15.00;;;17.50;99.90;;;;;;5069280;28;19927;-74
2021/08/10 08:55:36;;;;;;;20.13;15.77;;;17.50;99.90;;;;;;5085659;28;20071;-72
2021/08/10 08:58:02;;;;;;;19.63;14.77;;;17.60;99.90;;;;;;5045001;28;20509;-75
2021/08/10 09:00:28;;;;;;;19.67;16.65;;;17.70;99.90;;;;;;5062837;28;20063;-74
2021/08/10 09:02:54;;;;;;;21.25;14.82;;;17.80;99.90;;;;;;5069733;28;20130;-73
2021/08/10 09:05:20;;;;;;;19.33;14.45;;;17.90;99.90;;;;;;5082115;28;20577;-74
2021/08/10 09:07:46;;;;;;;17.85;13.10;;;18.00;99.90;;;;;;5076655;28;20040;-73
2021/08/10 09:10:17;;;;;;;20.02;13.52;;;18.00;99.90;;;;;;5043529;28;20056;-73
2021/08/10 09:12:54;;;;;;;15.40;12.50;;;18.10;99.90;;;;;;5083915;28;20122;-73
2021/08/10 09:15:36;;;;;;;21.10;13.73;;;18.00;99.90;;;;;;5071813;28;20059;-73
2021/08/10 09:18:16;;;;;;;15.45;12.32;;;18.00;99.90;;;;;;5077165;28;20048;-72
2021/08/10 09:21:02;;;;;;;16.88;13.40;;;17.90;99.90;;;;;;5085349;28;20044;-74
2021/08/10 09:23:46;;;;;;;16.40;13.55;;;17.90;99.90;;;;;;5081601;28;20050;-74
2021/08/10 09:26:18;;;;;;;17.65;13.65;;;17.80;99.90;;;;;;5078856;28;20098;-74
2021/08/10 09:28:45;;;;;;;19.70;15.32;;;17.70;99.90;;;;;;5088505;28;20097;-74
2021/08/10 09:31:37;;;;;;;18.42;16.02;;;17.50;99.90;;;;;;5081875;28;20056;-76
2021/08/10 09:34:04;;;;;;;18.40;13.57;;;17.50;99.90;;;;;;5073553;28;20044;-75
2021/08/10 09:36:31;;;;;;;11.25;8.30;;;17.40;99.90;;;;;;5074981;28;20550;-77
2021/08/10 09:38:58;;;;;;;14.00;7.85;;;17.30;99.90;;;;;;5083943;28;20033;-77
2021/08/10 09:41:25;;;;;;;10.77;6.95;;;17.10;99.90;;;;;;5068725;28;20096;-76
2021/08/10 09:44:06;;;;;;;9.73;8.23;;;17.00;99.90;;;;;;5072395;28;20050;-75
2021/08/10 09:46:32;;;;;;;9.00;5.90;;;16.80;99.90;;;;;;5073526;28;20411;-73
2021/08/10 09:48:57;;;;;;;9.52;6.50;;;16.70;99.90;;;;;;5043342;28;20040;-73
2021/08/10 09:51:27;;;;;;;11.88;6.80;;;16.50;99.90;;;;;;5075949;28;20642;-72
2021/08/10 09:54:04;;;;;;;12.65;7.65;;;16.40;99.90;;;;;;5075004;28;20043;-74
2021/08/10 09:56:43;;;;;;;9.77;6.13;;;16.40;99.90;;;;;;5079866;28;20036;-76
2021/08/10 09:59:09;;;;;;;10.55;7.75;;;16.50;99.90;;;;;;5078556;28;20558;-76
2021/08/10 10:01:41;;;;;;;14.18;9.00;;;16.60;99.90;;;;;;5066417;28;20063;-76
2021/08/10 10:04:27;;;;;;;14.40;10.50;;;16.60;99.90;;;;;;5080410;28;20036;-76
2021/08/10 10:06:55;;;;;;;13.95;11.60;;;16.70;99.90;;;;;;5074089;28;20043;-76
2021/08/10 10:09:23;;;;;;;24.48;14.13;;;16.90;99.90;;;;;;5071960;28;20036;-75
2021/08/10 10:11:51;;;;;;;17.30;13.40;;;16.90;99.90;;;;;;5077992;28;20040;-73
2021/08/10 10:14:17;;;;;;;17.30;12.65;;;17.00;99.90;;;;;;5071969;28;20130;-73
2021/08/10 10:16:48;;;;;;;13.82;10.35;;;17.10;99.90;;;;;;5084434;28;20062;-75
2021/08/10 10:19:16;;;;;;;19.13;12.20;;;17.20;99.90;;;;;;5078666;28;20040;-75
2021/08/10 10:21:52;;;;;;;18.48;12.77;;;17.30;99.90;;;;;;5079681;28;20082;-75
2021/08/10 10:24:22;;;;;;;20.60;14.30;;;17.50;99.90;;;;;;5076326;28;20042;-75
2021/08/10 10:27:01;;;;;;;15.88;12.20;;;17.70;99.90;;;;;;5085909;28;20405;-75
2021/08/10 10:29:28;;;;;;;22.40;13.70;;;17.70;99.90;;;;;;5076993;28;20134;-77
2021/08/10 10:31:54;;;;;;;18.15;10.05;;;17.70;99.90;;;;;;5060775;28;20036;-75
2021/08/10 10:34:20;;;;;;;7.43;4.35;;;17.60;99.90;;;;;;5074789;28;20086;-75
2021/08/10 10:36:48;;;;;;;8.98;4.50;;;17.40;99.90;;;;;;5064112;28;20045;-77
2021/08/10 10:39:24;;;;;;;8.77;4.40;;;17.20;99.90;;;;;;5076625;28;20611;-77
2021/08/10 10:41:53;;;;;;;7.80;4.75;;;16.90;99.90;;;;;;5072498;28;20036;-74
2021/08/10 10:44:40;;;;;;;11.80;7.70;;;16.80;99.90;;;;;;5070618;28;20248;-74
2021/08/10 10:47:34;;;;;;;10.80;6.65;;;16.70;99.90;;;;;;5075869;28;20068;-75
2021/08/10 10:50:00;;;;;;;18.33;8.70;;;16.60;99.90;;;;;;5082844;28;20032;-74
2021/08/10 10:52:28;;;;;;;16.90;9.63;;;16.60;99.90;;;;;;5075992;28;20395;-75
2021/08/10 10:54:55;;;;;;;14.63;9.90;;;16.60;99.90;;;;;;5081161;28;20044;-74
2021/08/10 10:57:33;;;;;;;14.07;10.80;;;16.60;99.90;;;;;;5083637;28;20127;-74
2021/08/10 11:00:14;;;;;;;16.17;10.85;;;16.70;99.90;;;;;;5080744;28;20065;-74
2021/08/10 11:02:40;;;;;;;14.43;10.70;;;16.70;99.90;;;;;;5069959;28;20041;-75
2021/08/10 11:05:06;;;;;;;19.15;12.40;;;16.80;99.90;;;;;;5040827;28;20051;-74
2021/08/10 11:07:55;;;;;;;19.65;13.43;;;16.90;99.90;;;;;;5077598;28;20524;-74
2021/08/10 11:10:45;;;;;;;14.35;11.15;;;16.90;99.90;;;;;;5078122;28;20113;-75
2021/08/10 11:13:17;;;;;;;21.88;13.60;;;17.00;99.90;;;;;;5072261;28;21180;-76
2021/08/10 11:15:46;;;;;;;22.55;14.65;;;17.00;99.90;;;;;;5073471;28;20075;-73
2021/08/10 11:18:11;;;;;;;13.30;9.35;;;17.10;99.90;;;;;;5072669;28;20044;-74
2021/08/10 11:20:42;;;;;;;12.68;10.55;;;17.10;99.90;;;;;;5074884;28;20127;-72
2021/08/10 11:23:31;;;;;;;19.90;12.68;;;17.20;99.90;;;;;;5054242;28;20388;-73
2021/08/10 11:25:59;;;;;;;14.80;10.10;;;17.20;99.90;;;;;;5078499;28;20032;-72
2021/08/10 11:28:30;;;;;;;15.93;12.25;;;17.30;99.90;;;;;;5082044;28;20068;-72
2021/08/10 11:30:59;;;;;;;23.80;17.38;;;17.40;99.90;;;;;;5073860;28;20063;-72
2021/08/10 11:33:34;;;;;;;34.45;19.95;;;17.50;99.90;;;;;;5075671;28;20064;-73
2021/08/10 11:36:09;;;;;;;20.20;14.90;;;17.70;99.90;;;;;;5074630;28;20066;-74
2021/08/10 11:38:55;;;;;;;16.95;13.57;;;18.00;99.90;;;;;;5077405;28;20068;-73
2021/08/10 11:41:27;;;;;;;20.92;14.30;;;18.30;99.90;;;;;;5066648;28;20048;-74
2021/08/10 11:43:56;;;;;;;17.45;12.82;;;18.40;99.90;;;;;;5078649;28;20032;-74
2021/08/10 11:46:29;;;;;;;19.27;15.50;;;18.50;99.90;;;;;;5072131;28;20032;-73
2021/08/10 11:49:01;;;;;;;14.82;12.13;;;18.50;99.90;;;;;;5077033;28;20036;-73
2021/08/10 11:51:42;;;;;;;21.38;17.13;;;18.60;99.90;;;;;;5077779;28;20047;-73
2021/08/10 11:54:11;;;;;;;17.13;12.68;;;18.90;99.90;;;;;;5071624;28;20036;-72
2021/08/10 11:56:48;;;;;;;16.15;12.98;;;19.20;99.90;;;;;;5085209;28;20036;-72
2021/08/10 11:59:19;;;;;;;15.88;12.98;;;19.30;99.90;;;;;;5080371;28;20050;-74
2021/08/10 12:01:47;;;;;;;14.57;11.70;;;19.30;99.90;;;;;;5083772;28;20056;-74
2021/08/10 12:04:18;;;;;;;17.35;13.02;;;19.40;99.90;;;;;;5085288;28;20123;-72
2021/08/10 12:06:46;;;;;;;13.60;9.40;;;19.50;99.90;;;;;;5069152;28;20060;-72
2021/08/10 12:09:14;;;;;;;16.50;11.85;;;19.50;99.90;;;;;;5079288;28;20064;-72
2021/08/10 12:11:42;;;;;;;11.43;8.43;;;19.40;99.90;;;;;;5087174;28;20082;-75
2021/08/10 12:14:10;;;;;;;11.77;7.00;;;19.50;99.90;;;;;;5079540;28;20479;-75
2021/08/10 12:16:36;;;;;;;7.40;5.28;;;19.50;99.90;;;;;;5060149;28;20431;-75
2021/08/10 12:19:02;;;;;;;6.47;4.68;;;19.70;99.90;;;;;;5077330;28;20501;-75
2021/08/10 12:21:41;;;;;;;7.78;3.97;;;19.90;99.90;;;;;;5076248;28;20487;-73
2021/08/10 12:24:08;;;;;;;6.78;3.75;;;20.10;99.90;;;;;;5057554;28;20044;-72
2021/08/10 12:26:34;;;;;;;7.20;3.33;;;20.40;99.90;;;;;;5072381;28;20501;-73
2021/08/10 12:29:01;;;;;;;5.05;3.45;;;20.50;99.90;;;;;;5066350;28;20048;-72
2021/08/10 12:31:29;;;;;;;5.13;3.60;;;20.60;99.90;;;;;;5043489;28;20047;-72
2021/08/10 12:33:59;;;;;;;7.15;3.45;;;20.70;99.90;;;;;;5087422;28;20055;-73
2021/08/10 12:36:26;;;;;;;3.83;2.47;;;20.50;99.90;;;;;;5076743;28;20043;-75
2021/08/10 12:38:53;;;;;;;6.35;3.50;;;20.30;99.90;;;;;;5071647;28;20059;-74
2021/08/10 12:41:24;;;;;;;5.90;3.63;;;20.10;99.50;;;;;;5080945;28;21443;-74
2021/08/10 12:43:52;;;;;;;5.15;3.33;;;19.80;98.90;;;;;;5084214;28;20483;-73